sensor_id;sensor_type;location;lat;lon;timestamp;P1;durP1;ratioP1;P2;durP2;ratioP2
78854;SDS011;68206;59.956;30.234;2024-03-25T00:01:15;4.88;;;2.00;;
78854;SDS011;68206;59.956;30.234;2024-03-25T00:03:42;4.40;;;2.05;;
78854;SDS011;68206;59.956;30.234;2024-03-25T00:06:09;3.78;;;2.20;;
78854;SDS011;68206;59.956;30.234;2024-03-25T00:08:35;7.25;;;2.63;;
78854;SDS011;68206;59.956;30.234;2024-03-25T00:11:03;7.18;;;2.88;;
78854;SDS011;68206;59.956;30.234;2024-03-25T00:13:29;3.42;;;2.17;;
78854;SDS011;68206;59.956;30.234;2024-03-25T00:15:57;3.72;;;2.30;;
78854;SDS011;68206;59.956;30.234;2024-03-25T00:18:24;8.98;;;3.00;;
78854;SDS011;68206;59.956;30.234;2024-03-25T00:20:52;5.10;;;2.80;;
78854;SDS011;68206;59.956;30.234;2024-03-25T00:23:18;6.60;;;3.33;;
78854;SDS011;68206;59.956;30.234;2024-03-25T00:25:46;10.25;;;3.55;;
78854;SDS011;68206;59.956;30.234;2024-03-25T03:11:33;6.57;;;2.65;;
78854;SDS011;68206;59.956;30.234;2024-03-25T03:14:00;7.95;;;3.30;;
78854;SDS011;68206;59.956;30.234;2024-03-25T03:16:26;12.05;;;4.00;;
78854;SDS011;68206;59.956;30.234;2024-03-25T03:18:55;10.63;;;3.95;;
78854;SDS011;68206;59.956;30.234;2024-03-25T03:21:21;11.48;;;3.90;;
78854;SDS011;68206;59.956;30.234;2024-03-25T03:23:48;11.82;;;3.97;;
78854;SDS011;68206;59.956;30.234;2024-03-25T03:26:15;13.30;;;4.32;;
78854;SDS011;68206;59.956;30.234;2024-03-25T03:28:43;13.77;;;3.95;;
78854;SDS011;68206;59.956;30.234;2024-03-25T03:31:09;11.23;;;4.18;;
78854;SDS011;68206;59.956;30.234;2024-03-25T03:33:36;13.10;;;4.90;;
78854;SDS011;68206;59.956;30.234;2024-03-25T03:36:03;10.27;;;3.97;;
78854;SDS011;68206;59.956;30.234;2024-03-25T03:38:31;14.90;;;4.97;;
78854;SDS011;68206;59.956;30.234;2024-03-25T03:43:25;14.70;;;4.88;;
78854;SDS011;68206;59.956;30.234;2024-03-25T03:45:52;14.88;;;4.03;;
78854;SDS011;68206;59.956;30.234;2024-03-25T03:48:19;9.45;;;3.60;;
78854;SDS011;68206;59.956;30.234;2024-03-25T03:50:46;10.23;;;4.15;;
78854;SDS011;68206;59.956;30.234;2024-03-25T03:53:13;12.75;;;4.25;;
78854;SDS011;68206;59.956;30.234;2024-03-25T03:55:39;11.20;;;4.40;;
78854;SDS011;68206;59.956;30.234;2024-03-25T03:58:06;9.55;;;4.07;;
78854;SDS011;68206;59.956;30.234;2024-03-25T04:00:33;7.70;;;3.33;;
78854;SDS011;68206;59.956;30.234;2024-03-25T04:03:03;10.27;;;3.63;;
78854;SDS011;68206;59.956;30.234;2024-03-25T04:05:30;8.35;;;3.50;;
78854;SDS011;68206;59.956;30.234;2024-03-25T04:07:57;11.35;;;4.13;;
78854;SDS011;68206;59.956;30.234;2024-03-25T04:10:26;8.10;;;3.42;;
78854;SDS011;68206;59.956;30.234;2024-03-25T04:12:53;7.13;;;3.55;;
78854;SDS011;68206;59.956;30.234;2024-03-25T04:15:21;8.52;;;3.53;;
78854;SDS011;68206;59.956;30.234;2024-03-25T04:17:48;7.53;;;3.78;;
78854;SDS011;68206;59.956;30.234;2024-03-25T04:20:17;8.07;;;3.25;;
78854;SDS011;68206;59.956;30.234;2024-03-25T04:22:43;8.80;;;3.65;;
78854;SDS011;68206;59.956;30.234;2024-03-25T04:25:10;7.53;;;3.05;;
78854;SDS011;68206;59.956;30.234;2024-03-25T04:27:37;6.00;;;2.80;;
78854;SDS011;68206;59.956;30.234;2024-03-25T04:30:05;7.18;;;2.78;;
78854;SDS011;68206;59.956;30.234;2024-03-25T04:32:33;10.07;;;3.00;;
78854;SDS011;68206;59.956;30.234;2024-03-25T04:35:00;4.53;;;2.90;;
78854;SDS011;68206;59.956;30.234;2024-03-25T04:37:30;7.85;;;3.10;;
78854;SDS011;68206;59.956;30.234;2024-03-25T04:39:56;8.57;;;3.22;;
78854;SDS011;68206;59.956;30.234;2024-03-25T04:42:22;10.70;;;3.22;;
78854;SDS011;68206;59.956;30.234;2024-03-25T04:47:15;8.38;;;3.40;;
78854;SDS011;68206;59.956;30.234;2024-03-25T04:49:41;5.50;;;2.88;;
78854;SDS011;68206;59.956;30.234;2024-03-25T04:52:07;5.50;;;2.55;;
78854;SDS011;68206;59.956;30.234;2024-03-25T04:54:36;10.18;;;3.22;;
78854;SDS011;68206;59.956;30.234;2024-03-25T04:57:02;4.55;;;2.80;;
78854;SDS011;68206;59.956;30.234;2024-03-25T05:01:54;7.97;;;2.70;;
78854;SDS011;68206;59.956;30.234;2024-03-25T05:04:21;5.07;;;2.40;;
78854;SDS011;68206;59.956;30.234;2024-03-25T05:06:47;3.53;;;2.33;;
78854;SDS011;68206;59.956;30.234;2024-03-25T05:09:14;4.18;;;2.22;;
78854;SDS011;68206;59.956;30.234;2024-03-25T05:11:41;4.50;;;2.03;;
78854;SDS011;68206;59.956;30.234;2024-03-25T05:14:07;7.18;;;2.33;;
78854;SDS011;68206;59.956;30.234;2024-03-25T05:16:34;7.68;;;2.42;;
78854;SDS011;68206;59.956;30.234;2024-03-25T05:19:00;4.97;;;2.60;;
78854;SDS011;68206;59.956;30.234;2024-03-25T05:21:26;4.47;;;2.28;;
78854;SDS011;68206;59.956;30.234;2024-03-25T05:23:53;6.32;;;2.33;;
78854;SDS011;68206;59.956;30.234;2024-03-25T05:26:19;6.38;;;2.00;;
78854;SDS011;68206;59.956;30.234;2024-03-25T05:28:47;4.85;;;2.40;;
78854;SDS011;68206;59.956;30.234;2024-03-25T05:31:18;5.20;;;2.70;;
78854;SDS011;68206;59.956;30.234;2024-03-25T05:33:44;6.47;;;2.67;;
78854;SDS011;68206;59.956;30.234;2024-03-25T05:36:12;4.45;;;2.80;;
78854;SDS011;68206;59.956;30.234;2024-03-25T05:38:38;4.15;;;2.45;;
78854;SDS011;68206;59.956;30.234;2024-03-25T05:41:05;5.03;;;2.33;;
78854;SDS011;68206;59.956;30.234;2024-03-25T05:43:32;3.20;;;2.45;;
78854;SDS011;68206;59.956;30.234;2024-03-25T05:46:00;5.85;;;2.22;;
78854;SDS011;68206;59.956;30.234;2024-03-25T05:48:27;3.95;;;2.63;;
78854;SDS011;68206;59.956;30.234;2024-03-25T05:50:58;5.53;;;2.05;;
78854;SDS011;68206;59.956;30.234;2024-03-25T05:53:25;3.35;;;2.30;;
78854;SDS011;68206;59.956;30.234;2024-03-25T05:55:52;4.20;;;2.20;;
78854;SDS011;68206;59.956;30.234;2024-03-25T05:58:18;4.05;;;2.10;;
78854;SDS011;68206;59.956;30.234;2024-03-25T06:00:46;4.32;;;2.38;;
78854;SDS011;68206;59.956;30.234;2024-03-25T06:03:15;5.57;;;2.50;;
78854;SDS011;68206;59.956;30.234;2024-03-25T06:05:41;5.82;;;2.83;;
78854;SDS011;68206;59.956;30.234;2024-03-25T06:08:08;4.18;;;2.22;;
78854;SDS011;68206;59.956;30.234;2024-03-25T06:10:35;3.67;;;2.25;;
78854;SDS011;68206;59.956;30.234;2024-03-25T06:13:02;4.00;;;2.60;;
78854;SDS011;68206;59.956;30.234;2024-03-25T06:15:28;4.40;;;2.33;;
78854;SDS011;68206;59.956;30.234;2024-03-25T06:18:09;5.85;;;2.30;;
78854;SDS011;68206;59.956;30.234;2024-03-25T06:20:40;3.50;;;2.22;;
78854;SDS011;68206;59.956;30.234;2024-03-25T06:23:06;5.15;;;2.20;;
78854;SDS011;68206;59.956;30.234;2024-03-25T06:27:59;4.30;;;2.20;;
78854;SDS011;68206;59.956;30.234;2024-03-25T06:30:25;8.68;;;2.97;;
78854;SDS011;68206;59.956;30.234;2024-03-25T06:33:10;2.90;;;1.98;;
78854;SDS011;68206;59.956;30.234;2024-03-25T06:35:57;3.63;;;2.28;;
78854;SDS011;68206;59.956;30.234;2024-03-25T06:38:23;4.25;;;2.20;;
78854;SDS011;68206;59.956;30.234;2024-03-25T06:40:49;5.22;;;2.30;;
78854;SDS011;68206;59.956;30.234;2024-03-25T06:43:15;3.60;;;2.17;;
78854;SDS011;68206;59.956;30.234;2024-03-25T06:45:42;4.00;;;2.25;;
78854;SDS011;68206;59.956;30.234;2024-03-25T06:48:08;3.35;;;2.35;;
78854;SDS011;68206;59.956;30.234;2024-03-25T06:50:34;3.75;;;1.85;;
78854;SDS011;68206;59.956;30.234;2024-03-25T06:53:02;4.43;;;2.05;;
78854;SDS011;68206;59.956;30.234;2024-03-25T06:55:29;3.42;;;2.10;;
78854;SDS011;68206;59.956;30.234;2024-03-25T06:57:55;3.25;;;2.03;;
78854;SDS011;68206;59.956;30.234;2024-03-25T07:00:22;3.58;;;2.33;;
78854;SDS011;68206;59.956;30.234;2024-03-25T07:02:48;4.95;;;2.30;;
78854;SDS011;68206;59.956;30.234;2024-03-25T07:05:14;3.45;;;2.17;;
78854;SDS011;68206;59.956;30.234;2024-03-25T07:07:41;2.80;;;1.60;;
78854;SDS011;68206;59.956;30.234;2024-03-25T07:10:08;4.38;;;1.95;;
78854;SDS011;68206;59.956;30.234;2024-03-25T07:12:35;4.82;;;2.17;;
78854;SDS011;68206;59.956;30.234;2024-03-25T07:15:01;5.28;;;2.22;;
78854;SDS011;68206;59.956;30.234;2024-03-25T07:17:28;2.78;;;1.80;;
78854;SDS011;68206;59.956;30.234;2024-03-25T07:19:54;5.03;;;2.05;;
78854;SDS011;68206;59.956;30.234;2024-03-25T07:22:20;2.65;;;1.95;;
78854;SDS011;68206;59.956;30.234;2024-03-25T07:24:47;3.08;;;2.10;;
78854;SDS011;68206;59.956;30.234;2024-03-25T07:27:15;4.43;;;2.13;;
78854;SDS011;68206;59.956;30.234;2024-03-25T07:29:41;3.53;;;2.30;;
78854;SDS011;68206;59.956;30.234;2024-03-25T07:32:08;3.53;;;1.98;;
78854;SDS011;68206;59.956;30.234;2024-03-25T07:34:35;3.33;;;2.08;;
78854;SDS011;68206;59.956;30.234;2024-03-25T07:37:02;3.40;;;1.77;;
78854;SDS011;68206;59.956;30.234;2024-03-25T07:39:28;2.80;;;2.20;;
78854;SDS011;68206;59.956;30.234;2024-03-25T07:41:55;3.03;;;1.70;;
78854;SDS011;68206;59.956;30.234;2024-03-25T07:44:23;3.33;;;1.80;;
78854;SDS011;68206;59.956;30.234;2024-03-25T07:46:49;3.20;;;1.80;;
78854;SDS011;68206;59.956;30.234;2024-03-25T07:49:15;2.42;;;1.70;;
78854;SDS011;68206;59.956;30.234;2024-03-25T07:51:42;5.07;;;2.10;;
78854;SDS011;68206;59.956;30.234;2024-03-25T07:54:08;5.57;;;1.85;;
78854;SDS011;68206;59.956;30.234;2024-03-25T07:56:34;3.13;;;2.22;;
78854;SDS011;68206;59.956;30.234;2024-03-25T07:59:01;3.00;;;1.90;;
78854;SDS011;68206;59.956;30.234;2024-03-25T08:01:28;5.07;;;1.90;;
78854;SDS011;68206;59.956;30.234;2024-03-25T08:03:55;3.55;;;2.05;;
78854;SDS011;68206;59.956;30.234;2024-03-25T08:06:22;3.47;;;1.65;;
78854;SDS011;68206;59.956;30.234;2024-03-25T08:08:48;2.95;;;2.13;;
78854;SDS011;68206;59.956;30.234;2024-03-25T08:11:15;3.08;;;1.80;;
78854;SDS011;68206;59.956;30.234;2024-03-25T08:13:41;3.53;;;2.10;;
78854;SDS011;68206;59.956;30.234;2024-03-25T08:16:07;2.40;;;1.70;;
78854;SDS011;68206;59.956;30.234;2024-03-25T08:18:35;3.53;;;1.92;;
78854;SDS011;68206;59.956;30.234;2024-03-25T08:21:02;2.90;;;1.85;;
78854;SDS011;68206;59.956;30.234;2024-03-25T08:23:28;2.60;;;1.67;;
78854;SDS011;68206;59.956;30.234;2024-03-25T08:25:54;3.25;;;1.70;;
78854;SDS011;68206;59.956;30.234;2024-03-25T08:28:21;2.30;;;1.70;;
78854;SDS011;68206;59.956;30.234;2024-03-25T08:30:47;2.20;;;1.73;;
78854;SDS011;68206;59.956;30.234;2024-03-25T08:33:13;2.50;;;1.92;;
78854;SDS011;68206;59.956;30.234;2024-03-25T08:35:41;3.00;;;1.88;;
78854;SDS011;68206;59.956;30.234;2024-03-25T08:38:07;2.60;;;1.65;;
78854;SDS011;68206;59.956;30.234;2024-03-25T08:40:33;2.40;;;1.58;;
78854;SDS011;68206;59.956;30.234;2024-03-25T08:43:00;4.20;;;1.90;;
78854;SDS011;68206;59.956;30.234;2024-03-25T08:45:26;3.50;;;1.33;;
78854;SDS011;68206;59.956;30.234;2024-03-25T08:47:52;2.90;;;1.83;;
78854;SDS011;68206;59.956;30.234;2024-03-25T08:50:18;2.58;;;1.60;;
78854;SDS011;68206;59.956;30.234;2024-03-25T08:52:46;3.38;;;1.60;;
78854;SDS011;68206;59.956;30.234;2024-03-25T08:55:15;3.30;;;1.50;;
78854;SDS011;68206;59.956;30.234;2024-03-25T08:57:41;2.60;;;1.67;;
78854;SDS011;68206;59.956;30.234;2024-03-25T09:00:08;2.22;;;1.50;;
78854;SDS011;68206;59.956;30.234;2024-03-25T09:02:35;2.00;;;1.27;;
78854;SDS011;68206;59.956;30.234;2024-03-25T09:05:01;2.33;;;1.65;;
78854;SDS011;68206;59.956;30.234;2024-03-25T09:07:29;3.20;;;1.90;;
78854;SDS011;68206;59.956;30.234;2024-03-25T09:09:56;2.67;;;1.60;;
78854;SDS011;68206;59.956;30.234;2024-03-25T09:12:41;1.70;;;1.40;;
78854;SDS011;68206;59.956;30.234;2024-03-25T09:15:09;1.77;;;1.33;;
78854;SDS011;68206;59.956;30.234;2024-03-25T09:17:36;2.10;;;1.52;;
78854;SDS011;68206;59.956;30.234;2024-03-25T09:22:29;1.42;;;1.23;;
78854;SDS011;68206;59.956;30.234;2024-03-25T09:24:57;1.48;;;1.30;;
78854;SDS011;68206;59.956;30.234;2024-03-25T09:27:23;4.88;;;2.03;;
78854;SDS011;68206;59.956;30.234;2024-03-25T09:29:50;1.85;;;1.45;;
78854;SDS011;68206;59.956;30.234;2024-03-25T09:32:17;2.70;;;1.48;;
78854;SDS011;68206;59.956;30.234;2024-03-25T09:34:43;2.58;;;1.50;;
78854;SDS011;68206;59.956;30.234;2024-03-25T09:37:10;2.75;;;1.55;;
78854;SDS011;68206;59.956;30.234;2024-03-25T09:39:36;4.72;;;1.73;;
78854;SDS011;68206;59.956;30.234;2024-03-25T09:42:04;6.93;;;1.85;;
78854;SDS011;68206;59.956;30.234;2024-03-25T09:44:34;2.30;;;1.58;;
78854;SDS011;68206;59.956;30.234;2024-03-25T09:47:00;2.60;;;1.77;;
78854;SDS011;68206;59.956;30.234;2024-03-25T09:49:28;3.70;;;1.83;;
78854;SDS011;68206;59.956;30.234;2024-03-25T09:51:54;2.50;;;1.90;;
78854;SDS011;68206;59.956;30.234;2024-03-25T09:54:21;2.80;;;1.90;;
78854;SDS011;68206;59.956;30.234;2024-03-25T09:56:48;2.95;;;1.65;;
78854;SDS011;68206;59.956;30.234;2024-03-25T09:59:17;5.18;;;1.80;;
78854;SDS011;68206;59.956;30.234;2024-03-25T10:01:44;3.03;;;1.65;;
78854;SDS011;68206;59.956;30.234;2024-03-25T10:04:10;4.43;;;1.95;;
78854;SDS011;68206;59.956;30.234;2024-03-25T10:06:37;3.70;;;1.73;;
78854;SDS011;68206;59.956;30.234;2024-03-25T10:09:05;4.05;;;1.75;;
78854;SDS011;68206;59.956;30.234;2024-03-25T10:11:32;3.25;;;1.98;;
78854;SDS011;68206;59.956;30.234;2024-03-25T10:13:58;2.60;;;1.70;;
78854;SDS011;68206;59.956;30.234;2024-03-25T10:16:26;3.72;;;1.77;;
78854;SDS011;68206;59.956;30.234;2024-03-25T10:18:52;2.38;;;1.65;;
78854;SDS011;68206;59.956;30.234;2024-03-25T10:21:19;4.88;;;1.95;;
78854;SDS011;68206;59.956;30.234;2024-03-25T10:23:47;2.92;;;1.77;;
78854;SDS011;68206;59.956;30.234;2024-03-25T10:26:26;2.30;;;1.75;;
78854;SDS011;68206;59.956;30.234;2024-03-25T10:29:00;3.17;;;1.77;;
78854;SDS011;68206;59.956;30.234;2024-03-25T10:31:28;3.17;;;1.90;;
78854;SDS011;68206;59.956;30.234;2024-03-25T10:33:57;1.90;;;1.50;;
78854;SDS011;68206;59.956;30.234;2024-03-25T10:36:23;2.38;;;1.65;;
78854;SDS011;68206;59.956;30.234;2024-03-25T10:38:53;4.13;;;1.60;;
78854;SDS011;68206;59.956;30.234;2024-03-25T10:41:21;2.72;;;1.65;;
78854;SDS011;68206;59.956;30.234;2024-03-25T10:43:49;2.65;;;1.92;;
78854;SDS011;68206;59.956;30.234;2024-03-25T10:46:20;2.90;;;1.58;;
78854;SDS011;68206;59.956;30.234;2024-03-25T10:48:52;3.03;;;1.88;;
78854;SDS011;68206;59.956;30.234;2024-03-25T10:51:23;4.45;;;2.00;;
78854;SDS011;68206;59.956;30.234;2024-03-25T10:53:51;2.58;;;1.67;;
78854;SDS011;68206;59.956;30.234;2024-03-25T10:56:19;2.08;;;1.55;;
78854;SDS011;68206;59.956;30.234;2024-03-25T10:58:46;2.92;;;1.73;;
78854;SDS011;68206;59.956;30.234;2024-03-25T11:01:15;2.28;;;1.52;;
78854;SDS011;68206;59.956;30.234;2024-03-25T11:03:43;2.38;;;1.60;;
78854;SDS011;68206;59.956;30.234;2024-03-25T11:06:13;2.80;;;1.80;;
78854;SDS011;68206;59.956;30.234;2024-03-25T11:08:39;2.17;;;1.70;;
78854;SDS011;68206;59.956;30.234;2024-03-25T11:11:05;2.58;;;1.73;;
78854;SDS011;68206;59.956;30.234;2024-03-25T11:13:32;4.85;;;1.65;;
78854;SDS011;68206;59.956;30.234;2024-03-25T11:15:59;3.20;;;1.50;;
78854;SDS011;68206;59.956;30.234;2024-03-25T11:18:25;5.63;;;1.80;;
78854;SDS011;68206;59.956;30.234;2024-03-25T11:21:02;2.63;;;1.70;;
78854;SDS011;68206;59.956;30.234;2024-03-25T11:23:38;2.50;;;1.60;;
78854;SDS011;68206;59.956;30.234;2024-03-25T11:26:16;2.97;;;1.60;;
78854;SDS011;68206;59.956;30.234;2024-03-25T11:28:45;3.03;;;1.80;;
78854;SDS011;68206;59.956;30.234;2024-03-25T11:31:12;3.15;;;1.65;;
78854;SDS011;68206;59.956;30.234;2024-03-25T11:33:38;3.25;;;1.88;;
78854;SDS011;68206;59.956;30.234;2024-03-25T11:36:05;2.53;;;1.65;;
78854;SDS011;68206;59.956;30.234;2024-03-25T11:38:32;3.30;;;2.05;;
78854;SDS011;68206;59.956;30.234;2024-03-25T11:41:00;2.83;;;1.80;;
78854;SDS011;68206;59.956;30.234;2024-03-25T11:43:27;4.90;;;1.75;;
78854;SDS011;68206;59.956;30.234;2024-03-25T11:45:53;3.17;;;1.95;;
78854;SDS011;68206;59.956;30.234;2024-03-25T11:48:19;3.88;;;2.08;;
78854;SDS011;68206;59.956;30.234;2024-03-25T11:50:46;5.13;;;1.90;;
78854;SDS011;68206;59.956;30.234;2024-03-25T11:53:16;3.03;;;2.13;;
78854;SDS011;68206;59.956;30.234;2024-03-25T11:55:45;6.35;;;2.22;;
78854;SDS011;68206;59.956;30.234;2024-03-25T11:58:13;3.42;;;2.10;;
78854;SDS011;68206;59.956;30.234;2024-03-25T12:00:44;5.28;;;2.40;;
78854;SDS011;68206;59.956;30.234;2024-03-25T12:03:12;4.07;;;2.10;;
78854;SDS011;68206;59.956;30.234;2024-03-25T12:05:39;3.50;;;2.00;;
78854;SDS011;68206;59.956;30.234;2024-03-25T12:08:07;4.40;;;2.42;;
78854;SDS011;68206;59.956;30.234;2024-03-25T12:10:34;3.17;;;2.10;;
78854;SDS011;68206;59.956;30.234;2024-03-25T12:13:20;2.65;;;1.80;;
78854;SDS011;68206;59.956;30.234;2024-03-25T12:15:48;3.17;;;2.20;;
78854;SDS011;68206;59.956;30.234;2024-03-25T12:18:15;4.00;;;3.05;;
78854;SDS011;68206;59.956;30.234;2024-03-25T12:20:41;4.05;;;2.25;;
78854;SDS011;68206;59.956;30.234;2024-03-25T12:23:08;6.95;;;2.50;;
78854;SDS011;68206;59.956;30.234;2024-03-25T12:25:34;3.10;;;2.10;;
78854;SDS011;68206;59.956;30.234;2024-03-25T12:28:00;6.53;;;2.60;;
78854;SDS011;68206;59.956;30.234;2024-03-25T12:30:28;4.28;;;2.10;;
78854;SDS011;68206;59.956;30.234;2024-03-25T12:32:55;5.30;;;2.55;;
78854;SDS011;68206;59.956;30.234;2024-03-25T12:35:23;6.53;;;2.45;;
78854;SDS011;68206;59.956;30.234;2024-03-25T12:37:49;4.13;;;2.30;;
78854;SDS011;68206;59.956;30.234;2024-03-25T12:40:25;3.50;;;2.47;;
78854;SDS011;68206;59.956;30.234;2024-03-25T12:42:52;3.53;;;2.42;;
78854;SDS011;68206;59.956;30.234;2024-03-25T12:47:48;6.93;;;2.72;;
78854;SDS011;68206;59.956;30.234;2024-03-25T12:50:14;3.75;;;2.20;;
78854;SDS011;68206;59.956;30.234;2024-03-25T12:52:40;4.60;;;2.40;;
78854;SDS011;68206;59.956;30.234;2024-03-25T12:55:07;3.92;;;2.10;;
78854;SDS011;68206;59.956;30.234;2024-03-25T12:57:33;4.20;;;2.40;;
78854;SDS011;68206;59.956;30.234;2024-03-25T12:59:59;4.40;;;2.65;;
78854;SDS011;68206;59.956;30.234;2024-03-25T13:02:26;6.70;;;2.30;;
78854;SDS011;68206;59.956;30.234;2024-03-25T13:04:54;4.97;;;2.88;;
78854;SDS011;68206;59.956;30.234;2024-03-25T13:07:20;4.30;;;3.28;;
78854;SDS011;68206;59.956;30.234;2024-03-25T13:09:46;5.20;;;2.50;;
78854;SDS011;68206;59.956;30.234;2024-03-25T13:12:13;4.07;;;2.90;;
78854;SDS011;68206;59.956;30.234;2024-03-25T13:17:05;3.50;;;2.10;;
78854;SDS011;68206;59.956;30.234;2024-03-25T13:19:31;4.47;;;2.60;;
78854;SDS011;68206;59.956;30.234;2024-03-25T13:21:59;6.22;;;2.80;;
78854;SDS011;68206;59.956;30.234;2024-03-25T13:24:25;5.10;;;2.33;;
78854;SDS011;68206;59.956;30.234;2024-03-25T13:26:52;2.92;;;2.42;;
78854;SDS011;68206;59.956;30.234;2024-03-25T13:29:18;4.07;;;2.40;;
78854;SDS011;68206;59.956;30.234;2024-03-25T13:31:44;8.18;;;2.90;;
78854;SDS011;68206;59.956;30.234;2024-03-25T13:34:11;6.18;;;2.88;;
78854;SDS011;68206;59.956;30.234;2024-03-25T13:36:37;5.75;;;2.40;;
78854;SDS011;68206;59.956;30.234;2024-03-25T13:39:04;4.05;;;2.42;;
78854;SDS011;68206;59.956;30.234;2024-03-25T13:41:30;3.20;;;2.17;;
78854;SDS011;68206;59.956;30.234;2024-03-25T13:43:57;9.10;;;2.75;;
78854;SDS011;68206;59.956;30.234;2024-03-25T13:46:23;7.80;;;3.13;;
78854;SDS011;68206;59.956;30.234;2024-03-25T13:48:49;5.18;;;2.78;;
78854;SDS011;68206;59.956;30.234;2024-03-25T13:51:15;4.85;;;2.63;;
78854;SDS011;68206;59.956;30.234;2024-03-25T13:53:42;5.90;;;3.30;;
78854;SDS011;68206;59.956;30.234;2024-03-25T13:56:09;4.00;;;2.40;;
78854;SDS011;68206;59.956;30.234;2024-03-25T13:58:35;6.10;;;2.60;;
78854;SDS011;68206;59.956;30.234;2024-03-25T14:01:02;7.47;;;2.70;;
78854;SDS011;68206;59.956;30.234;2024-03-25T14:05:54;6.88;;;2.67;;
78854;SDS011;68206;59.956;30.234;2024-03-25T14:08:21;3.97;;;2.75;;
78854;SDS011;68206;59.956;30.234;2024-03-25T14:10:56;7.60;;;2.63;;
78854;SDS011;68206;59.956;30.234;2024-03-25T14:13:24;4.72;;;2.63;;
78854;SDS011;68206;59.956;30.234;2024-03-25T14:15:50;3.63;;;2.70;;
78854;SDS011;68206;59.956;30.234;2024-03-25T14:18:16;3.60;;;2.50;;
78854;SDS011;68206;59.956;30.234;2024-03-25T14:20:43;3.42;;;2.45;;
78854;SDS011;68206;59.956;30.234;2024-03-25T14:23:09;11.50;;;2.60;;
78854;SDS011;68206;59.956;30.234;2024-03-25T14:25:35;5.22;;;2.50;;
78854;SDS011;68206;59.956;30.234;2024-03-25T14:28:01;5.18;;;3.10;;
78854;SDS011;68206;59.956;30.234;2024-03-25T14:30:30;5.00;;;3.08;;
78854;SDS011;68206;59.956;30.234;2024-03-25T14:32:56;6.30;;;3.35;;
78854;SDS011;68206;59.956;30.234;2024-03-25T14:35:22;4.47;;;2.90;;
78854;SDS011;68206;59.956;30.234;2024-03-25T14:37:49;7.38;;;3.33;;
78854;SDS011;68206;59.956;30.234;2024-03-25T14:40:15;5.95;;;2.60;;
78854;SDS011;68206;59.956;30.234;2024-03-25T14:42:43;4.75;;;3.00;;
78854;SDS011;68206;59.956;30.234;2024-03-25T14:45:10;3.47;;;2.40;;
78854;SDS011;68206;59.956;30.234;2024-03-25T14:47:38;4.47;;;2.60;;
78854;SDS011;68206;59.956;30.234;2024-03-25T14:50:04;5.72;;;3.88;;
78854;SDS011;68206;59.956;30.234;2024-03-25T14:52:31;5.88;;;2.75;;
78854;SDS011;68206;59.956;30.234;2024-03-25T14:54:58;6.60;;;2.88;;
78854;SDS011;68206;59.956;30.234;2024-03-25T14:57:24;3.47;;;2.33;;
78854;SDS011;68206;59.956;30.234;2024-03-25T14:59:50;3.42;;;2.47;;
78854;SDS011;68206;59.956;30.234;2024-03-25T15:02:17;4.80;;;2.47;;
78854;SDS011;68206;59.956;30.234;2024-03-25T15:04:45;7.30;;;2.97;;
78854;SDS011;68206;59.956;30.234;2024-03-25T15:07:11;3.28;;;2.47;;
78854;SDS011;68206;59.956;30.234;2024-03-25T15:09:37;4.38;;;2.45;;
78854;SDS011;68206;59.956;30.234;2024-03-25T15:12:04;3.67;;;2.47;;
78854;SDS011;68206;59.956;30.234;2024-03-25T15:14:31;4.40;;;2.65;;
78854;SDS011;68206;59.956;30.234;2024-03-25T15:16:57;3.45;;;2.40;;
78854;SDS011;68206;59.956;30.234;2024-03-25T15:19:24;8.27;;;3.03;;
78854;SDS011;68206;59.956;30.234;2024-03-25T15:21:52;4.43;;;2.95;;
78854;SDS011;68206;59.956;30.234;2024-03-25T15:24:18;5.57;;;3.22;;
78854;SDS011;68206;59.956;30.234;2024-03-25T15:26:44;4.97;;;2.60;;
78854;SDS011;68206;59.956;30.234;2024-03-25T15:29:11;6.40;;;2.55;;
78854;SDS011;68206;59.956;30.234;2024-03-25T15:31:38;5.32;;;2.80;;
78854;SDS011;68206;59.956;30.234;2024-03-25T15:34:04;6.43;;;2.67;;
78854;SDS011;68206;59.956;30.234;2024-03-25T15:36:30;4.53;;;2.58;;
78854;SDS011;68206;59.956;30.234;2024-03-25T15:38:58;4.00;;;2.58;;
78854;SDS011;68206;59.956;30.234;2024-03-25T15:41:24;6.40;;;2.92;;
78854;SDS011;68206;59.956;30.234;2024-03-25T15:43:51;12.35;;;3.85;;
78854;SDS011;68206;59.956;30.234;2024-03-25T15:46:17;6.05;;;2.80;;
78854;SDS011;68206;59.956;30.234;2024-03-25T15:48:43;7.70;;;3.33;;
78854;SDS011;68206;59.956;30.234;2024-03-25T15:51:10;5.38;;;2.92;;
78854;SDS011;68206;59.956;30.234;2024-03-25T15:53:36;4.13;;;2.70;;
78854;SDS011;68206;59.956;30.234;2024-03-25T15:56:04;5.00;;;3.10;;
78854;SDS011;68206;59.956;30.234;2024-03-25T15:58:31;5.22;;;2.92;;
78854;SDS011;68206;59.956;30.234;2024-03-25T16:00:57;4.72;;;2.75;;
78854;SDS011;68206;59.956;30.234;2024-03-25T16:03:23;5.13;;;3.80;;
78854;SDS011;68206;59.956;30.234;2024-03-25T16:05:50;3.22;;;2.47;;
78854;SDS011;68206;59.956;30.234;2024-03-25T16:08:16;6.53;;;2.47;;
78854;SDS011;68206;59.956;30.234;2024-03-25T16:10:43;7.07;;;2.53;;
78854;SDS011;68206;59.956;30.234;2024-03-25T16:13:10;4.65;;;2.72;;
78854;SDS011;68206;59.956;30.234;2024-03-25T16:15:36;3.70;;;2.65;;
78854;SDS011;68206;59.956;30.234;2024-03-25T16:18:03;4.28;;;2.60;;
78854;SDS011;68206;59.956;30.234;2024-03-25T16:22:56;3.72;;;2.67;;
78854;SDS011;68206;59.956;30.234;2024-03-25T16:27:49;4.43;;;2.45;;
78854;SDS011;68206;59.956;30.234;2024-03-25T16:32:44;5.40;;;2.75;;
78854;SDS011;68206;59.956;30.234;2024-03-25T16:35:10;8.38;;;2.78;;
78854;SDS011;68206;59.956;30.234;2024-03-25T16:37:37;4.65;;;2.85;;
78854;SDS011;68206;59.956;30.234;2024-03-25T16:40:03;8.75;;;2.90;;
78854;SDS011;68206;59.956;30.234;2024-03-25T16:42:31;6.38;;;2.70;;
78854;SDS011;68206;59.956;30.234;2024-03-25T16:44:57;6.80;;;2.45;;
78854;SDS011;68206;59.956;30.234;2024-03-25T16:47:25;5.55;;;3.08;;
78854;SDS011;68206;59.956;30.234;2024-03-25T16:49:51;5.20;;;3.00;;
78854;SDS011;68206;59.956;30.234;2024-03-25T16:52:17;4.15;;;2.63;;
78854;SDS011;68206;59.956;30.234;2024-03-25T16:54:43;4.60;;;2.83;;
78854;SDS011;68206;59.956;30.234;2024-03-25T16:57:10;3.75;;;2.47;;
78854;SDS011;68206;59.956;30.234;2024-03-25T16:59:36;5.53;;;2.97;;
78854;SDS011;68206;59.956;30.234;2024-03-25T17:04:30;4.28;;;2.80;;
78854;SDS011;68206;59.956;30.234;2024-03-25T17:06:56;8.45;;;2.92;;
78854;SDS011;68206;59.956;30.234;2024-03-25T17:09:22;5.60;;;3.03;;
78854;SDS011;68206;59.956;30.234;2024-03-25T17:11:49;3.85;;;2.50;;
78854;SDS011;68206;59.956;30.234;2024-03-25T17:14:16;4.75;;;2.58;;
78854;SDS011;68206;59.956;30.234;2024-03-25T17:16:42;4.93;;;2.90;;
78854;SDS011;68206;59.956;30.234;2024-03-25T17:19:08;4.28;;;2.78;;
78854;SDS011;68206;59.956;30.234;2024-03-25T17:24:02;4.30;;;2.80;;
78854;SDS011;68206;59.956;30.234;2024-03-25T17:26:29;3.90;;;2.95;;
78854;SDS011;68206;59.956;30.234;2024-03-25T17:28:55;7.30;;;2.80;;
78854;SDS011;68206;59.956;30.234;2024-03-25T17:31:22;5.00;;;2.42;;
78854;SDS011;68206;59.956;30.234;2024-03-25T17:33:48;4.05;;;2.40;;
78854;SDS011;68206;59.956;30.234;2024-03-25T17:36:14;4.30;;;2.47;;
78854;SDS011;68206;59.956;30.234;2024-03-25T17:38:42;7.90;;;3.00;;
78854;SDS011;68206;59.956;30.234;2024-03-25T17:41:08;4.93;;;2.70;;
78854;SDS011;68206;59.956;30.234;2024-03-25T17:43:36;7.22;;;2.85;;
78854;SDS011;68206;59.956;30.234;2024-03-25T17:46:03;3.78;;;2.38;;
78854;SDS011;68206;59.956;30.234;2024-03-25T17:48:30;7.18;;;2.67;;